Wetterdaten: aktuell Montag, 15.08.2022 18:45
Datum Zeit Temp. I. Temp. A. GH5 cm Aussen Res Temp4 neu Temp5 neu Feuchte A. Feuchte 2 Feuchte 3 Feuchte 4 Feuchte 5 Luftdruck Regen Wind Richtung Richtung Windben
15.08.2022 18:45 26,8 C 28,2 C 27,8 C 28,0 C 27,9 C 25,6 C 44 % 45 % 23 % 45 % 54 % 1007,4 hPa 0,0 mm 2,5 km/h N-NO 22 1,9 km/h
15.08.2022 17:45 26,9 C 29,9 C 30,4 C 29,5 C 29,7 C 25,6 C 38 % 40 % 20 % 40 % 53 % 1007,5 hPa 0,0 mm 5,0 km/h N-NO 22 6,4 km/h
15.08.2022 16:40 26,5 C 31,6 C 31,8 C 31,2 C 31,6 C 25,5 C 34 % 39 % 15 % 35 % 54 % 1007,3 hPa 0,0 mm 5,0 km/h N-NW 337 11,8 km/h
15.08.2022 15:40 26,0 C 32,2 C 34,1 C 31,4 C 32,0 C 25,0 C 36 % 38 % 20 % 38 % 55 % 1007,2 hPa 0,0 mm 5,8 km/h NW 315 5,4 km/h
15.08.2022 14:40 25,9 C 31,2 C 38,8 C 30,8 C 31,1 C 24,7 C 35 % 35 % 20 % 36 % 57 % 1007,6 hPa 0,0 mm 5,6 km/h W-NW 292 5,4 km/h
15.08.2022 13:40 25,8 C 29,8 C 37,1 C 29,4 C 29,7 C 24,7 C 41 % 38 % 25 % 43 % 59 % 1007,6 hPa 0,0 mm 6,0 km/h N-NO 22 3,5 km/h
15.08.2022 12:40 25,7 C 29,8 C 39,2 C 29,4 C 29,8 C 24,5 C 42 % 37 % 28 % 43 % 60 % 1007,7 hPa 0,0 mm 5,2 km/h W-SW 247 2,1 km/h
15.08.2022 11:40 25,5 C 29,1 C 40,7 C 28,9 C 29,6 C 24,3 C 44 % 39 % 31 % 45 % 61 % 1007,4 hPa 0,0 mm 5,8 km/h NW 315 2,7 km/h
15.08.2022 10:40 25,2 C 27,1 C 39,4 C 27,3 C 28,1 C 24,0 C 56 % 44 % 39 % 56 % 62 % 1007,4 hPa 0,0 mm 2,5 km/h W-SW 247 2,3 km/h
15.08.2022 09:40 24,9 C 24,7 C 38,0 C 24,9 C 25,9 C 23,8 C 61 % 49 % 45 % 61 % 61 % 1007,3 hPa 0,0 mm 1,9 km/h O-NO 67 0,0 km/h
15.08.2022 08:40 24,9 C 20,9 C 34,7 C 21,2 C 22,5 C 23,8 C 76 % 61 % 56 % 76 % 61 % 1007,5 hPa 0,0 mm 0,8 km/h N-NW 337 1,9 km/h
15.08.2022 07:35 24,9 C 16,8 C 19,6 C 16,5 C 16,6 C 23,8 C 84 % 78 % 61 % 87 % 61 % 1007,3 hPa 0,0 mm 0,0 km/h O 90 0,0 km/h
15.08.2022 06:35 25,0 C 16,3 C 16,9 C 16,0 C 16,0 C 23,9 C 83 % 78 % 60 % 88 % 61 % 1007,2 hPa 0,0 mm 0,0 km/h NO 45 0,0 km/h
15.08.2022 05:35 25,0 C 16,4 C 16,5 C 16,2 C 16,2 C 24,0 C 83 % 77 % 60 % 87 % 62 % 1007,4 hPa 0,0 mm 0,0 km/h O 90 0,0 km/h
15.08.2022 04:35 25,1 C 17,0 C 16,8 C 16,6 C 16,6 C 24,0 C 82 % 76 % 59 % 87 % 62 % 1007,2 hPa 0,0 mm 0,0 km/h SW 225 0,0 km/h
15.08.2022 03:35 25,1 C 17,7 C 17,5 C 17,4 C 17,4 C 24,1 C 82 % 75 % 57 % 85 % 62 % 1007,6 hPa 0,0 mm 0,0 km/h SO 135 0,0 km/h
15.08.2022 02:35 25,2 C 18,3 C 18,4 C 18,1 C 18,1 C 24,1 C 81 % 74 % 55 % 84 % 62 % 1007,9 hPa 0,0 mm 0,0 km/h SW 225 0,0 km/h
15.08.2022 01:35 25,2 C 19,1 C 18,5 C 18,7 C 18,7 C 24,2 C 78 % 72 % 53 % 80 % 62 % 1008,4 hPa 0,0 mm 0,0 km/h W-SW 247 0,0 km/h
15.08.2022 00:35 25,2 C 20,1 C 19,8 C 19,8 C 19,8 C 24,3 C 77 % 71 % 51 % 77 % 61 % 1009,1 hPa 0,0 mm 0,0 km/h W-NW 292 0,0 km/h
14.08.2022 23:35 25,2 C 20,8 C 20,6 C 20,5 C 20,5 C 24,3 C 75 % 70 % 49 % 76 % 61 % 1009,1 hPa 0,0 mm 0,0 km/h S-SO 157 0,0 km/h
14.08.2022 22:35 25,2 C 21,3 C 21,1 C 21,0 C 21,1 C 24,3 C 73 % 68 % 48 % 73 % 61 % 1009,3 hPa 0,0 mm 0,0 km/h O 90 0,0 km/h
14.08.2022 21:35 25,2 C 21,7 C 21,4 C 21,4 C 21,4 C 24,4 C 70 % 66 % 46 % 72 % 61 % 1009,3 hPa 0,0 mm 0,0 km/h SW 225 0,0 km/h
14.08.2022 20:35 25,2 C 22,2 C 21,9 C 22,0 C 22,0 C 24,4 C 69 % 64 % 45 % 68 % 61 % 1008,9 hPa 0,0 mm 0,4 km/h W-SW 247 0,0 km/h
14.08.2022 19:35 25,2 C 23,4 C 23,7 C 23,1 C 23,1 C 24,4 C 64 % 55 % 40 % 64 % 60 % 1009,1 hPa 0,0 mm 1,4 km/h W-NW 292 5,2 km/h
14.08.2022 19:00 25,2 C 24,2 C 24,7 C 23,8 C 23,8 C 24,5 C 60 % 53 % 38 % 62 % 60 % 1008,5 hPa 0,0 mm 3,1 km/h W-SW 247 3,5 km/h
_ Min-Zeit 06:50 06:50 04:55 06:30 06:30 07:30 14:55 14:35 16:40 14:20 16:55 06:10 - 20:05 - - 19:10
Minimum _ 24,9 C 16,2 C 16,5 C 15,9 C 15,9 C 23,8 C 32 % 34 % 15 % 34 % 53 % 1007,1 hPa - 0,0 km/h - - 0,0 km/h
_ Max-Zeit 17:45 15:35 11:50 15:35 15:40 17:05 05:55 05:55 06:30 04:55 00:55 21:50 19:00 13:30 - - 12:55
Maximum _ 26,9 C 32,2 C 41,9 C 31,6 C 32,0 C 25,6 C 84 % 78 % 62 % 88 % 62 % 1009,5 hPa 0,0 mm 7,5 km/h
NW
- - 16,4 km/h
N-NW
Durchschnitt _ 25,4 C 23,6 C 26,8 C 23,3 C 23,6 C 24,4 C 63 % 58 % 42 % 65 % 60 % 1008,0 hPa #0,0 mm 2,0 km/h NW - 2,7 km/h